N733PG -KFDK
Flight info
| Callsign | N733PG |
|---|---|
| Flight time | N/A |
| Altitude | VFR |
| Route | |
| Aircraft |
Departure
| Time | N/A |
|---|---|
| Airport | - |
Arrival
| Time | 2026-04-24 00:48 |
|---|---|
| Airport | Frederick Municipal Airport (KFDK) |
| Time | Latitude | Longitude | Altitude | Speed | Heading |
|---|---|---|---|---|---|
| 2026-04-24 00:28 | 39.76342 | -76.84837 | 4863 ft | 89 kts | 263° |
| 2026-04-24 00:28 | 39.76182 | -76.85619 | 4949 ft | 89 kts | 261° |
| 2026-04-24 00:29 | 39.75911 | -76.86433 | 4807 ft | 111 kts | 239° |
| 2026-04-24 00:29 | 39.75348 | -76.87208 | 4647 ft | 118 kts | 233° |
| 2026-04-24 00:29 | 39.74791 | -76.88000 | 4552 ft | 119 kts | 234° |
| 2026-04-24 00:29 | 39.74238 | -76.88776 | 4475 ft | 119 kts | 233° |
| 2026-04-24 00:30 | 39.73669 | -76.89539 | 4448 ft | 113 kts | 231° |
| 2026-04-24 00:30 | 39.73118 | -76.90262 | 4435 ft | 111 kts | 233° |
| 2026-04-24 00:30 | 39.72596 | -76.90978 | 4443 ft | 110 kts | 230° |
| 2026-04-24 00:30 | 39.72033 | -76.91660 | 4443 ft | 110 kts | 230° |
| 2026-04-24 00:31 | 39.71475 | -76.92331 | 4433 ft | 110 kts | 229° |
| 2026-04-24 00:31 | 39.70914 | -76.93011 | 4438 ft | 109 kts | 229° |
| 2026-04-24 00:31 | 39.70362 | -76.93676 | 4442 ft | 109 kts | 230° |
| 2026-04-24 00:31 | 39.69801 | -76.94353 | 4438 ft | 109 kts | 229° |
| 2026-04-24 00:32 | 39.69246 | -76.95019 | 4427 ft | 108 kts | 230° |
| 2026-04-24 00:32 | 39.68692 | -76.95673 | 4434 ft | 107 kts | 229° |
| 2026-04-24 00:32 | 39.68145 | -76.96319 | 4440 ft | 105 kts | 229° |
| 2026-04-24 00:32 | 39.67602 | -76.96950 | 4443 ft | 104 kts | 229° |
| 2026-04-24 00:33 | 39.67062 | -76.97579 | 4443 ft | 105 kts | 229° |
| 2026-04-24 00:33 | 39.66510 | -76.98223 | 4441 ft | 106 kts | 229° |
| 2026-04-24 00:33 | 39.65963 | -76.98865 | 4437 ft | 106 kts | 229° |
| 2026-04-24 00:33 | 39.65423 | -76.99505 | 4436 ft | 106 kts | 230° |
| 2026-04-24 00:34 | 39.64878 | -77.00154 | 4437 ft | 106 kts | 229° |
| 2026-04-24 00:34 | 39.64339 | -77.00800 | 4436 ft | 106 kts | 229° |
| 2026-04-24 00:34 | 39.63794 | -77.01458 | 4437 ft | 106 kts | 230° |
| 2026-04-24 00:34 | 39.63255 | -77.02103 | 4436 ft | 106 kts | 229° |
| 2026-04-24 00:35 | 39.62714 | -77.02754 | 4437 ft | 106 kts | 230° |
| 2026-04-24 00:35 | 39.62171 | -77.03402 | 4436 ft | 106 kts | 230° |
| 2026-04-24 00:35 | 39.61624 | -77.04054 | 4436 ft | 106 kts | 229° |
| 2026-04-24 00:35 | 39.61088 | -77.04693 | 4436 ft | 106 kts | 229° |
| 2026-04-24 00:36 | 39.60538 | -77.05347 | 4435 ft | 106 kts | 229° |
| 2026-04-24 00:36 | 39.60001 | -77.05988 | 4436 ft | 106 kts | 230° |
| 2026-04-24 00:36 | 39.59451 | -77.06641 | 4437 ft | 106 kts | 229° |
| 2026-04-24 00:36 | 39.58905 | -77.07291 | 4437 ft | 106 kts | 229° |
| 2026-04-24 00:37 | 39.58363 | -77.07935 | 4437 ft | 106 kts | 230° |
| 2026-04-24 00:37 | 39.57814 | -77.08584 | 4437 ft | 106 kts | 229° |
| 2026-04-24 00:37 | 39.57271 | -77.09231 | 4434 ft | 106 kts | 229° |
| 2026-04-24 00:37 | 39.56732 | -77.09879 | 4435 ft | 106 kts | 230° |
| 2026-04-24 00:38 | 39.56192 | -77.10529 | 4434 ft | 106 kts | 230° |
| 2026-04-24 00:38 | 39.55644 | -77.11188 | 4435 ft | 106 kts | 230° |
| 2026-04-24 00:38 | 39.55111 | -77.11832 | 4435 ft | 106 kts | 229° |
| 2026-04-24 00:38 | 39.54564 | -77.12498 | 4436 ft | 106 kts | 230° |
| 2026-04-24 00:39 | 39.54023 | -77.13147 | 4435 ft | 107 kts | 230° |
| 2026-04-24 00:39 | 39.53474 | -77.13795 | 4428 ft | 104 kts | 229° |
| 2026-04-24 00:39 | 39.52966 | -77.14470 | 4307 ft | 104 kts | 243° |
| 2026-04-24 00:39 | 39.52648 | -77.15264 | 4135 ft | 102 kts | 252° |
| 2026-04-24 00:40 | 39.52359 | -77.16116 | 3913 ft | 104 kts | 253° |
| 2026-04-24 00:40 | 39.52086 | -77.16997 | 3684 ft | 107 kts | 252° |
| 2026-04-24 00:40 | 39.51811 | -77.17918 | 3425 ft | 110 kts | 255° |
| 2026-04-24 00:40 | 39.51594 | -77.18831 | 3311 ft | 101 kts | 261° |
| 2026-04-24 00:41 | 39.51455 | -77.19719 | 3177 ft | 99 kts | 264° |
| 2026-04-24 00:41 | 39.51335 | -77.20602 | 3031 ft | 100 kts | 265° |
| 2026-04-24 00:41 | 39.51268 | -77.21487 | 2893 ft | 99 kts | 270° |
| 2026-04-24 00:41 | 39.51270 | -77.22411 | 2680 ft | 103 kts | 275° |
| 2026-04-24 00:42 | 39.51297 | -77.23306 | 2558 ft | 98 kts | 275° |
| 2026-04-24 00:42 | 39.51321 | -77.24163 | 2470 ft | 93 kts | 276° |
| 2026-04-24 00:42 | 39.51311 | -77.25021 | 2315 ft | 97 kts | 265° |
| 2026-04-24 00:42 | 39.51127 | -77.25864 | 2177 ft | 99 kts | 248° |
| 2026-04-24 00:43 | 39.50717 | -77.26586 | 2004 ft | 103 kts | 230° |
| 2026-04-24 00:43 | 39.50256 | -77.27290 | 1870 ft | 100 kts | 234° |
| 2026-04-24 00:43 | 39.49827 | -77.28007 | 1774 ft | 102 kts | 234° |
| 2026-04-24 00:43 | 39.49350 | -77.28722 | 1653 ft | 106 kts | 228° |
| 2026-04-24 00:44 | 39.48820 | -77.29377 | 1577 ft | 104 kts | 222° |
| 2026-04-24 00:44 | 39.48264 | -77.29971 | 1496 ft | 105 kts | 220° |
| 2026-04-24 00:44 | 39.47714 | -77.30592 | 1432 ft | 103 kts | 223° |
| 2026-04-24 00:44 | 39.47176 | -77.31186 | 1383 ft | 101 kts | 221° |
| 2026-04-24 00:45 | 39.46637 | -77.31776 | 1320 ft | 101 kts | 220° |
| 2026-04-24 00:45 | 39.46112 | -77.32349 | 1238 ft | 94 kts | 221° |
| 2026-04-24 00:45 | 39.45627 | -77.32896 | 1137 ft | 90 kts | 223° |
| 2026-04-24 00:45 | 39.45169 | -77.33402 | 1062 ft | 86 kts | 220° |
| 2026-04-24 00:46 | 39.44706 | -77.33903 | 954 ft | 86 kts | 222° |
| 2026-04-24 00:46 | 39.44255 | -77.34403 | 818 ft | 84 kts | 221° |
| 2026-04-24 00:46 | 39.43825 | -77.34884 | 701 ft | 82 kts | 221° |
| 2026-04-24 00:46 | 39.43393 | -77.35357 | 612 ft | 82 kts | 221° |
| 2026-04-24 00:47 | 39.42965 | -77.35836 | 545 ft | 80 kts | 221° |
| 2026-04-24 00:47 | 39.42542 | -77.36295 | 459 ft | 78 kts | 220° |
| 2026-04-24 00:47 | 39.42137 | -77.36745 | 349 ft | 75 kts | 220° |
| 2026-04-24 00:47 | 39.41774 | -77.37144 | 298 ft | 58 kts | 221° |
| 2026-04-24 00:48 | 39.41524 | -77.37420 | 303 ft | 36 kts | 226° |
| 2026-04-24 00:48 | 39.41354 | -77.37606 | 307 ft | 31 kts | 221° |
| 2026-04-24 00:48 | 39.41214 | -77.37761 | 310 ft | 17 kts | 214° |
| 2026-04-24 00:48 | 39.41211 | -77.37866 | 311 ft | 11 kts | 310° |
| 2026-04-24 00:49 | 39.41228 | -77.37894 | 311 ft | 0 kts | 302° |
| 2026-04-24 00:49 | 39.41229 | -77.37895 | 311 ft | 2 kts | 304° |
| 2026-04-24 00:49 | 39.41278 | -77.37879 | 311 ft | 10 kts | 41° |
| 2026-04-24 00:50 | 39.41345 | -77.37811 | 311 ft | 14 kts | 30° |
| 2026-04-24 00:50 | 39.41459 | -77.37788 | 308 ft | 17 kts | 5° |
| 2026-04-24 00:50 | 39.41574 | -77.37774 | 308 ft | 15 kts | 3° |
| 2026-04-24 00:50 | 39.41668 | -77.37788 | 308 ft | 12 kts | 281° |
| 2026-04-24 00:51 | 39.41672 | -77.37880 | 309 ft | 9 kts | 275° |
| 2026-04-24 00:51 | 39.41667 | -77.37919 | 309 ft | 0 kts | 181° |